sensor_id;sensor_type;location;lat;lon;timestamp;P1;durP1;ratioP1;P2;durP2;ratioP2
15218;SDS011;15623;53.986;11.676;2022-09-14T00:02:43;7.90;;;1.80;;
15218;SDS011;15623;53.986;11.676;2022-09-14T00:05:13;7.80;;;1.60;;
15218;SDS011;15623;53.986;11.676;2022-09-14T00:07:43;7.03;;;1.75;;
15218;SDS011;15623;53.986;11.676;2022-09-14T00:10:12;6.18;;;1.60;;
15218;SDS011;15623;53.986;11.676;2022-09-14T00:12:50;9.13;;;1.63;;
15218;SDS011;15623;53.986;11.676;2022-09-14T00:15:18;8.02;;;2.08;;
15218;SDS011;15623;53.986;11.676;2022-09-14T00:17:48;5.55;;;1.60;;
15218;SDS011;15623;53.986;11.676;2022-09-14T00:20:16;8.43;;;2.03;;
15218;SDS011;15623;53.986;11.676;2022-09-14T00:22:45;6.80;;;1.60;;
15218;SDS011;15623;53.986;11.676;2022-09-14T00:25:33;7.28;;;1.67;;
15218;SDS011;15623;53.986;11.676;2022-09-14T00:28:03;7.72;;;1.88;;
15218;SDS011;15623;53.986;11.676;2022-09-14T00:30:47;6.45;;;1.60;;
15218;SDS011;15623;53.986;11.676;2022-09-14T00:33:17;4.97;;;1.58;;
15218;SDS011;15623;53.986;11.676;2022-09-14T00:35:45;8.15;;;2.20;;
15218;SDS011;15623;53.986;11.676;2022-09-14T00:38:27;8.50;;;2.10;;
15218;SDS011;15623;53.986;11.676;2022-09-14T00:40:55;8.40;;;1.80;;
15218;SDS011;15623;53.986;11.676;2022-09-14T00:43:23;7.50;;;1.75;;
15218;SDS011;15623;53.986;11.676;2022-09-14T00:45:51;9.77;;;2.20;;
15218;SDS011;15623;53.986;11.676;2022-09-14T00:48:30;8.63;;;2.17;;
15218;SDS011;15623;53.986;11.676;2022-09-14T00:50:58;8.18;;;2.22;;
15218;SDS011;15623;53.986;11.676;2022-09-14T00:53:26;7.57;;;2.30;;
15218;SDS011;15623;53.986;11.676;2022-09-14T00:58:19;8.23;;;2.10;;
15218;SDS011;15623;53.986;11.676;2022-09-14T01:01:01;8.80;;;1.90;;
15218;SDS011;15623;53.986;11.676;2022-09-14T01:03:33;6.65;;;2.00;;
15218;SDS011;15623;53.986;11.676;2022-09-14T01:06:03;7.40;;;1.55;;
15218;SDS011;15623;53.986;11.676;2022-09-14T01:11:41;4.88;;;1.65;;
15218;SDS011;15623;53.986;11.676;2022-09-14T01:14:11;7.93;;;1.80;;
15218;SDS011;15623;53.986;11.676;2022-09-14T01:16:48;10.77;;;2.00;;
15218;SDS011;15623;53.986;11.676;2022-09-14T01:19:24;8.30;;;2.00;;
15218;SDS011;15623;53.986;11.676;2022-09-14T01:21:56;8.20;;;2.10;;
15218;SDS011;15623;53.986;11.676;2022-09-14T01:24:32;9.05;;;2.03;;
15218;SDS011;15623;53.986;11.676;2022-09-14T01:30:03;6.18;;;1.75;;
15218;SDS011;15623;53.986;11.676;2022-09-14T01:32:33;8.65;;;1.90;;
15218;SDS011;15623;53.986;11.676;2022-09-14T01:35:02;7.60;;;2.22;;
15218;SDS011;15623;53.986;11.676;2022-09-14T01:37:32;9.00;;;2.00;;
15218;SDS011;15623;53.986;11.676;2022-09-14T01:40:03;8.32;;;2.25;;
15218;SDS011;15623;53.986;11.676;2022-09-14T01:42:32;6.80;;;1.95;;
15218;SDS011;15623;53.986;11.676;2022-09-14T01:45:06;11.57;;;2.10;;
15218;SDS011;15623;53.986;11.676;2022-09-14T01:47:36;13.10;;;2.40;;
15218;SDS011;15623;53.986;11.676;2022-09-14T01:50:06;8.32;;;1.95;;
15218;SDS011;15623;53.986;11.676;2022-09-14T01:52:37;8.25;;;2.75;;
15218;SDS011;15623;53.986;11.676;2022-09-14T01:55:08;9.52;;;2.88;;
15218;SDS011;15623;53.986;11.676;2022-09-14T01:57:38;7.78;;;1.92;;
15218;SDS011;15623;53.986;11.676;2022-09-14T02:02:53;8.90;;;2.43;;
15218;SDS011;15623;53.986;11.676;2022-09-14T02:05:23;10.40;;;2.80;;
15218;SDS011;15623;53.986;11.676;2022-09-14T02:07:52;8.48;;;2.50;;
15218;SDS011;15623;53.986;11.676;2022-09-14T02:10:20;11.68;;;2.17;;
15218;SDS011;15623;53.986;11.676;2022-09-14T02:12:48;12.40;;;2.42;;
15218;SDS011;15623;53.986;11.676;2022-09-14T02:15:17;9.60;;;2.42;;
15218;SDS011;15623;53.986;11.676;2022-09-14T02:17:45;11.40;;;2.33;;
15218;SDS011;15623;53.986;11.676;2022-09-14T02:20:17;9.60;;;2.30;;
15218;SDS011;15623;53.986;11.676;2022-09-14T02:22:47;9.57;;;2.40;;
15218;SDS011;15623;53.986;11.676;2022-09-14T02:25:21;8.20;;;2.20;;
15218;SDS011;15623;53.986;11.676;2022-09-14T02:27:50;11.13;;;2.40;;
15218;SDS011;15623;53.986;11.676;2022-09-14T02:30:18;16.15;;;2.83;;
15218;SDS011;15623;53.986;11.676;2022-09-14T02:32:51;9.95;;;2.20;;
15218;SDS011;15623;53.986;11.676;2022-09-14T02:35:24;15.60;;;2.70;;
15218;SDS011;15623;53.986;11.676;2022-09-14T02:37:55;14.88;;;2.72;;
15218;SDS011;15623;53.986;11.676;2022-09-14T02:40:26;10.88;;;2.38;;
15218;SDS011;15623;53.986;11.676;2022-09-14T02:42:58;14.85;;;2.67;;
15218;SDS011;15623;53.986;11.676;2022-09-14T02:45:31;10.52;;;2.20;;
15218;SDS011;15623;53.986;11.676;2022-09-14T02:48:03;11.30;;;2.05;;
15218;SDS011;15623;53.986;11.676;2022-09-14T02:50:34;8.07;;;2.38;;
15218;SDS011;15623;53.986;11.676;2022-09-14T02:53:05;14.93;;;2.92;;
15218;SDS011;15623;53.986;11.676;2022-09-14T02:55:35;10.27;;;2.38;;
15218;SDS011;15623;53.986;11.676;2022-09-14T02:58:04;10.70;;;2.22;;
15218;SDS011;15623;53.986;11.676;2022-09-14T03:00:36;9.70;;;2.10;;
15218;SDS011;15623;53.986;11.676;2022-09-14T03:03:04;15.77;;;2.65;;
15218;SDS011;15623;53.986;11.676;2022-09-14T03:05:34;7.90;;;2.30;;
15218;SDS011;15623;53.986;11.676;2022-09-14T03:08:02;8.68;;;2.53;;
15218;SDS011;15623;53.986;11.676;2022-09-14T03:10:31;15.48;;;2.75;;
15218;SDS011;15623;53.986;11.676;2022-09-14T03:12:59;14.57;;;2.42;;
15218;SDS011;15623;53.986;11.676;2022-09-14T03:15:27;10.65;;;2.80;;
15218;SDS011;15623;53.986;11.676;2022-09-14T03:17:55;12.52;;;2.70;;
15218;SDS011;15623;53.986;11.676;2022-09-14T03:20:24;11.13;;;2.58;;
15218;SDS011;15623;53.986;11.676;2022-09-14T03:22:55;9.80;;;2.30;;
15218;SDS011;15623;53.986;11.676;2022-09-14T03:25:24;10.77;;;2.15;;
15218;SDS011;15623;53.986;11.676;2022-09-14T03:27:53;11.23;;;2.70;;
15218;SDS011;15623;53.986;11.676;2022-09-14T03:30:22;9.63;;;2.15;;
15218;SDS011;15623;53.986;11.676;2022-09-14T03:32:50;8.32;;;2.40;;
15218;SDS011;15623;53.986;11.676;2022-09-14T03:35:17;9.80;;;2.40;;
15218;SDS011;15623;53.986;11.676;2022-09-14T03:37:45;10.27;;;1.88;;
15218;SDS011;15623;53.986;11.676;2022-09-14T03:40:15;8.93;;;2.38;;
15218;SDS011;15623;53.986;11.676;2022-09-14T03:42:44;8.18;;;2.45;;
15218;SDS011;15623;53.986;11.676;2022-09-14T03:45:15;9.93;;;1.92;;
15218;SDS011;15623;53.986;11.676;2022-09-14T03:47:47;8.25;;;2.50;;
15218;SDS011;15623;53.986;11.676;2022-09-14T03:50:17;10.40;;;2.03;;
15218;SDS011;15623;53.986;11.676;2022-09-14T03:52:45;9.60;;;2.17;;
15218;SDS011;15623;53.986;11.676;2022-09-14T03:57:58;7.28;;;2.30;;
15218;SDS011;15623;53.986;11.676;2022-09-14T04:00:28;12.93;;;2.45;;
15218;SDS011;15623;53.986;11.676;2022-09-14T04:19:20;11.50;;;2.35;;
15218;SDS011;15623;53.986;11.676;2022-09-14T04:22:01;6.95;;;2.10;;
15218;SDS011;15623;53.986;11.676;2022-09-14T04:29:41;9.27;;;2.00;;
15218;SDS011;15623;53.986;11.676;2022-09-14T04:32:09;6.72;;;2.00;;
15218;SDS011;15623;53.986;11.676;2022-09-14T04:49:44;7.30;;;2.07;;
15218;SDS011;15623;53.986;11.676;2022-09-14T04:54:47;10.73;;;2.75;;
15218;SDS011;15623;53.986;11.676;2022-09-14T04:57:24;9.55;;;2.50;;
15218;SDS011;15623;53.986;11.676;2022-09-14T04:59:55;10.13;;;2.47;;
15218;SDS011;15623;53.986;11.676;2022-09-14T05:02:23;18.33;;;2.80;;
15218;SDS011;15623;53.986;11.676;2022-09-14T05:04:56;9.47;;;2.10;;
15218;SDS011;15623;53.986;11.676;2022-09-14T05:07:25;7.33;;;2.10;;
15218;SDS011;15623;53.986;11.676;2022-09-14T05:09:55;8.53;;;2.03;;
15218;SDS011;15623;53.986;11.676;2022-09-14T05:12:26;11.40;;;2.40;;
15218;SDS011;15623;53.986;11.676;2022-09-14T05:14:56;8.63;;;2.50;;
15218;SDS011;15623;53.986;11.676;2022-09-14T05:17:24;8.07;;;2.20;;
15218;SDS011;15623;53.986;11.676;2022-09-14T05:48:33;13.80;;;1.92;;
15218;SDS011;15623;53.986;11.676;2022-09-14T05:51:03;9.73;;;2.45;;
15218;SDS011;15623;53.986;11.676;2022-09-14T05:53:31;6.60;;;2.28;;
15218;SDS011;15623;53.986;11.676;2022-09-14T05:56:01;8.52;;;1.98;;
15218;SDS011;15623;53.986;11.676;2022-09-14T05:58:29;10.80;;;2.58;;
15218;SDS011;15623;53.986;11.676;2022-09-14T06:00:58;10.90;;;2.63;;
15218;SDS011;15623;53.986;11.676;2022-09-14T06:03:26;7.55;;;2.15;;
15218;SDS011;15623;53.986;11.676;2022-09-14T06:05:57;10.43;;;2.33;;
15218;SDS011;15623;53.986;11.676;2022-09-14T06:08:25;5.20;;;2.25;;
15218;SDS011;15623;53.986;11.676;2022-09-14T06:24:54;13.07;;;2.88;;
15218;SDS011;15623;53.986;11.676;2022-09-14T06:27:26;8.88;;;2.55;;
15218;SDS011;15623;53.986;11.676;2022-09-14T06:32:42;9.98;;;2.80;;
15218;SDS011;15623;53.986;11.676;2022-09-14T06:35:10;8.48;;;2.70;;
15218;SDS011;15623;53.986;11.676;2022-09-14T06:37:38;8.10;;;2.30;;
15218;SDS011;15623;53.986;11.676;2022-09-14T06:40:10;5.78;;;2.40;;
15218;SDS011;15623;53.986;11.676;2022-09-14T06:45:06;5.10;;;2.80;;
15218;SDS011;15623;53.986;11.676;2022-09-14T06:50:30;12.45;;;2.60;;
15218;SDS011;15623;53.986;11.676;2022-09-14T06:53:01;11.52;;;2.40;;
15218;SDS011;15623;53.986;11.676;2022-09-14T06:55:31;11.68;;;2.50;;
15218;SDS011;15623;53.986;11.676;2022-09-14T06:57:59;7.80;;;2.25;;
15218;SDS011;15623;53.986;11.676;2022-09-14T07:00:27;4.72;;;2.20;;
15218;SDS011;15623;53.986;11.676;2022-09-14T07:02:56;7.80;;;2.40;;
15218;SDS011;15623;53.986;11.676;2022-09-14T07:05:23;6.57;;;2.38;;
15218;SDS011;15623;53.986;11.676;2022-09-14T07:10:16;5.82;;;2.33;;
15218;SDS011;15623;53.986;11.676;2022-09-14T07:12:46;8.80;;;2.70;;
15218;SDS011;15623;53.986;11.676;2022-09-14T07:15:14;8.27;;;2.28;;
15218;SDS011;15623;53.986;11.676;2022-09-14T07:17:43;9.13;;;3.20;;
15218;SDS011;15623;53.986;11.676;2022-09-14T07:20:11;9.27;;;2.75;;
15218;SDS011;15623;53.986;11.676;2022-09-14T07:22:39;7.32;;;3.05;;
15218;SDS011;15623;53.986;11.676;2022-09-14T07:25:07;5.47;;;2.28;;
15218;SDS011;15623;53.986;11.676;2022-09-14T07:27:36;5.70;;;2.28;;
15218;SDS011;15623;53.986;11.676;2022-09-14T07:30:07;3.88;;;1.77;;
15218;SDS011;15623;53.986;11.676;2022-09-14T07:32:34;4.10;;;1.80;;
15218;SDS011;15623;53.986;11.676;2022-09-14T07:35:04;7.00;;;2.08;;
15218;SDS011;15623;53.986;11.676;2022-09-14T07:37:32;5.60;;;1.70;;
15218;SDS011;15623;53.986;11.676;2022-09-14T07:40:06;7.22;;;2.05;;
15218;SDS011;15623;53.986;11.676;2022-09-14T07:42:36;7.13;;;2.17;;
15218;SDS011;15623;53.986;11.676;2022-09-14T07:45:04;6.15;;;1.73;;
15218;SDS011;15623;53.986;11.676;2022-09-14T07:47:35;4.45;;;1.83;;
15218;SDS011;15623;53.986;11.676;2022-09-14T07:50:03;6.00;;;1.77;;
15218;SDS011;15623;53.986;11.676;2022-09-14T07:52:32;5.10;;;1.80;;
15218;SDS011;15623;53.986;11.676;2022-09-14T07:54:59;4.80;;;1.60;;
15218;SDS011;15623;53.986;11.676;2022-09-14T07:57:27;5.07;;;2.00;;
15218;SDS011;15623;53.986;11.676;2022-09-14T07:59:54;5.00;;;1.63;;
15218;SDS011;15623;53.986;11.676;2022-09-14T08:02:22;6.03;;;2.03;;
15218;SDS011;15623;53.986;11.676;2022-09-14T08:04:54;4.00;;;1.75;;
15218;SDS011;15623;53.986;11.676;2022-09-14T08:07:24;4.38;;;1.50;;
15218;SDS011;15623;53.986;11.676;2022-09-14T08:09:52;5.95;;;1.83;;
15218;SDS011;15623;53.986;11.676;2022-09-14T08:12:20;3.22;;;1.50;;
15218;SDS011;15623;53.986;11.676;2022-09-14T08:17:35;4.43;;;1.48;;
15218;SDS011;15623;53.986;11.676;2022-09-14T08:20:05;6.35;;;1.80;;
15218;SDS011;15623;53.986;11.676;2022-09-14T08:25:27;5.57;;;1.40;;
15218;SDS011;15623;53.986;11.676;2022-09-14T08:27:58;3.45;;;1.58;;
15218;SDS011;15623;53.986;11.676;2022-09-14T08:30:27;3.63;;;1.90;;
15218;SDS011;15623;53.986;11.676;2022-09-14T08:36:13;4.03;;;1.58;;
15218;SDS011;15623;53.986;11.676;2022-09-14T08:38:41;2.75;;;1.50;;
15218;SDS011;15623;53.986;11.676;2022-09-14T08:41:10;3.72;;;1.20;;
15218;SDS011;15623;53.986;11.676;2022-09-14T08:43:38;3.97;;;1.40;;
15218;SDS011;15623;53.986;11.676;2022-09-14T08:46:08;8.45;;;1.92;;
15218;SDS011;15623;53.986;11.676;2022-09-14T09:08:25;6.13;;;1.58;;
15218;SDS011;15623;53.986;11.676;2022-09-14T09:10:55;6.00;;;1.70;;
15218;SDS011;15623;53.986;11.676;2022-09-14T09:16:33;2.80;;;1.40;;
15218;SDS011;15623;53.986;11.676;2022-09-14T09:21:39;8.32;;;1.58;;
15218;SDS011;15623;53.986;11.676;2022-09-14T09:24:33;4.30;;;1.80;;
15218;SDS011;15623;53.986;11.676;2022-09-14T09:27:04;2.72;;;1.50;;
15218;SDS011;15623;53.986;11.676;2022-09-14T09:29:38;6.20;;;2.05;;
15218;SDS011;15623;53.986;11.676;2022-09-14T09:32:21;4.10;;;1.50;;
15218;SDS011;15623;53.986;11.676;2022-09-14T09:35:04;5.05;;;1.73;;
15218;SDS011;15623;53.986;11.676;2022-09-14T09:42:36;4.15;;;1.35;;
15218;SDS011;15623;53.986;11.676;2022-09-14T09:45:04;6.00;;;1.50;;
15218;SDS011;15623;53.986;11.676;2022-09-14T09:47:33;4.30;;;1.58;;
15218;SDS011;15623;53.986;11.676;2022-09-14T09:50:15;3.92;;;1.38;;
15218;SDS011;15623;53.986;11.676;2022-09-14T09:52:47;4.05;;;1.30;;
15218;SDS011;15623;53.986;11.676;2022-09-14T10:08:49;2.97;;;1.23;;
15218;SDS011;15623;53.986;11.676;2022-09-14T10:11:32;3.63;;;1.23;;
15218;SDS011;15623;53.986;11.676;2022-09-14T10:14:05;4.70;;;1.48;;
15218;SDS011;15623;53.986;11.676;2022-09-14T10:16:47;4.15;;;1.30;;
15218;SDS011;15623;53.986;11.676;2022-09-14T10:19:17;4.28;;;1.40;;
15218;SDS011;15623;53.986;11.676;2022-09-14T10:25:07;3.45;;;1.20;;
15218;SDS011;15623;53.986;11.676;2022-09-14T11:05:18;3.83;;;1.48;;
15218;SDS011;15623;53.986;11.676;2022-09-14T11:07:51;3.25;;;1.23;;
15218;SDS011;15623;53.986;11.676;2022-09-14T11:18:23;3.08;;;1.20;;
15218;SDS011;15623;53.986;11.676;2022-09-14T11:21:22;2.90;;;1.20;;
15218;SDS011;15623;53.986;11.676;2022-09-14T11:23:55;4.05;;;1.38;;
15218;SDS011;15623;53.986;11.676;2022-09-14T11:26:24;2.53;;;1.10;;
15218;SDS011;15623;53.986;11.676;2022-09-14T11:31:45;3.75;;;1.15;;
15218;SDS011;15623;53.986;11.676;2022-09-14T13:40:20;3.13;;;1.27;;
15218;SDS011;15623;53.986;11.676;2022-09-14T13:42:48;3.10;;;1.50;;
15218;SDS011;15623;53.986;11.676;2022-09-14T13:47:53;6.55;;;1.83;;
15218;SDS011;15623;53.986;11.676;2022-09-14T13:53:35;7.63;;;1.20;;
15218;SDS011;15623;53.986;11.676;2022-09-14T13:56:44;5.63;;;1.38;;
15218;SDS011;15623;53.986;11.676;2022-09-14T13:59:35;5.28;;;1.30;;
15218;SDS011;15623;53.986;11.676;2022-09-14T14:02:09;3.65;;;1.30;;
15218;SDS011;15623;53.986;11.676;2022-09-14T14:04:52;6.95;;;1.55;;
15218;SDS011;15623;53.986;11.676;2022-09-14T14:07:33;5.85;;;1.40;;
15218;SDS011;15623;53.986;11.676;2022-09-14T14:10:00;3.40;;;1.23;;
15218;SDS011;15623;53.986;11.676;2022-09-14T14:12:31;3.95;;;1.25;;
15218;SDS011;15623;53.986;11.676;2022-09-14T14:15:01;3.42;;;1.30;;
15218;SDS011;15623;53.986;11.676;2022-09-14T14:17:33;4.20;;;1.40;;
15218;SDS011;15623;53.986;11.676;2022-09-14T14:22:54;4.43;;;1.40;;
15218;SDS011;15623;53.986;11.676;2022-09-14T14:25:29;3.42;;;1.42;;
15218;SDS011;15623;53.986;11.676;2022-09-14T14:28:00;2.28;;;1.20;;
15218;SDS011;15623;53.986;11.676;2022-09-14T14:30:41;3.22;;;1.35;;
15218;SDS011;15623;53.986;11.676;2022-09-14T14:33:09;2.33;;;1.30;;
15218;SDS011;15623;53.986;11.676;2022-09-14T14:35:37;4.55;;;1.27;;
15218;SDS011;15623;53.986;11.676;2022-09-14T14:38:07;6.53;;;1.60;;
15218;SDS011;15623;53.986;11.676;2022-09-14T14:40:35;4.88;;;1.45;;
15218;SDS011;15623;53.986;11.676;2022-09-14T14:43:05;3.78;;;1.13;;
15218;SDS011;15623;53.986;11.676;2022-09-14T14:45:33;6.35;;;1.35;;
15218;SDS011;15623;53.986;11.676;2022-09-14T14:48:02;2.97;;;1.40;;
15218;SDS011;15623;53.986;11.676;2022-09-14T14:50:30;2.42;;;1.30;;
15218;SDS011;15623;53.986;11.676;2022-09-14T14:53:00;5.85;;;1.55;;
15218;SDS011;15623;53.986;11.676;2022-09-14T14:55:28;5.28;;;1.40;;
15218;SDS011;15623;53.986;11.676;2022-09-14T15:00:45;4.07;;;1.52;;
15218;SDS011;15623;53.986;11.676;2022-09-14T15:03:13;4.38;;;1.67;;
15218;SDS011;15623;53.986;11.676;2022-09-14T15:05:40;3.58;;;1.50;;
15218;SDS011;15623;53.986;11.676;2022-09-14T15:08:08;3.85;;;1.40;;
15218;SDS011;15623;53.986;11.676;2022-09-14T15:10:38;4.88;;;1.45;;
15218;SDS011;15623;53.986;11.676;2022-09-14T15:13:07;7.10;;;1.67;;
15218;SDS011;15623;53.986;11.676;2022-09-14T15:15:37;6.38;;;1.58;;
15218;SDS011;15623;53.986;11.676;2022-09-14T15:18:07;4.13;;;1.48;;
15218;SDS011;15623;53.986;11.676;2022-09-14T15:20:34;6.70;;;1.50;;
15218;SDS011;15623;53.986;11.676;2022-09-14T15:23:02;3.38;;;1.20;;
15218;SDS011;15623;53.986;11.676;2022-09-14T15:25:31;6.88;;;1.63;;
15218;SDS011;15623;53.986;11.676;2022-09-14T15:27:58;6.47;;;1.27;;
15218;SDS011;15623;53.986;11.676;2022-09-14T15:30:25;6.30;;;1.70;;
15218;SDS011;15623;53.986;11.676;2022-09-14T15:32:53;4.95;;;1.35;;
15218;SDS011;15623;53.986;11.676;2022-09-14T15:35:22;7.28;;;1.65;;
15218;SDS011;15623;53.986;11.676;2022-09-14T15:37:50;5.18;;;1.50;;
15218;SDS011;15623;53.986;11.676;2022-09-14T15:40:17;3.25;;;1.35;;
15218;SDS011;15623;53.986;11.676;2022-09-14T15:42:44;5.05;;;1.40;;
15218;SDS011;15623;53.986;11.676;2022-09-14T15:45:12;3.72;;;1.40;;
15218;SDS011;15623;53.986;11.676;2022-09-14T15:47:41;4.95;;;1.40;;
15218;SDS011;15623;53.986;11.676;2022-09-14T15:50:09;6.65;;;1.48;;
15218;SDS011;15623;53.986;11.676;2022-09-14T15:52:38;2.70;;;1.52;;
15218;SDS011;15623;53.986;11.676;2022-09-14T15:55:06;5.68;;;1.27;;
15218;SDS011;15623;53.986;11.676;2022-09-14T15:57:38;2.95;;;1.20;;
15218;SDS011;15623;53.986;11.676;2022-09-14T16:00:06;4.55;;;1.50;;
15218;SDS011;15623;53.986;11.676;2022-09-14T16:02:34;5.28;;;1.92;;
15218;SDS011;15623;53.986;11.676;2022-09-14T16:05:01;2.60;;;1.02;;
15218;SDS011;15623;53.986;11.676;2022-09-14T19:21:53;1.45;;;0.75;;
15218;SDS011;15623;53.986;11.676;2022-09-14T19:24:21;4.10;;;0.60;;
15218;SDS011;15623;53.986;11.676;2022-09-14T19:26:51;1.75;;;0.85;;
15218;SDS011;15623;53.986;11.676;2022-09-14T19:31:57;1.08;;;0.65;;
15218;SDS011;15623;53.986;11.676;2022-09-14T19:34:25;2.33;;;0.65;;
15218;SDS011;15623;53.986;11.676;2022-09-14T19:36:55;0.85;;;0.70;;
15218;SDS011;15623;53.986;11.676;2022-09-14T19:39:25;1.55;;;0.60;;
15218;SDS011;15623;53.986;11.676;2022-09-14T19:41:53;4.03;;;1.05;;
15218;SDS011;15623;53.986;11.676;2022-09-14T19:46:57;2.03;;;0.60;;
15218;SDS011;15623;53.986;11.676;2022-09-14T19:49:36;1.42;;;0.77;;
15218;SDS011;15623;53.986;11.676;2022-09-14T19:52:15;2.35;;;0.88;;
15218;SDS011;15623;53.986;11.676;2022-09-14T19:54:48;1.90;;;1.02;;
15218;SDS011;15623;53.986;11.676;2022-09-14T19:57:20;1.48;;;0.75;;
15218;SDS011;15623;53.986;11.676;2022-09-14T19:59:49;0.65;;;0.60;;
15218;SDS011;15623;53.986;11.676;2022-09-14T20:02:18;0.82;;;0.60;;
15218;SDS011;15623;53.986;11.676;2022-09-14T20:04:52;1.73;;;0.80;;
15218;SDS011;15623;53.986;11.676;2022-09-14T20:10:09;0.93;;;0.80;;
15218;SDS011;15623;53.986;11.676;2022-09-14T20:50:29;0.90;;;0.73;;
15218;SDS011;15623;53.986;11.676;2022-09-14T20:58:12;1.90;;;0.80;;
15218;SDS011;15623;53.986;11.676;2022-09-14T21:08:36;0.75;;;0.75;;
15218;SDS011;15623;53.986;11.676;2022-09-14T21:11:05;0.95;;;0.70;;
15218;SDS011;15623;53.986;11.676;2022-09-14T21:22:56;1.17;;;0.75;;
15218;SDS011;15623;53.986;11.676;2022-09-14T21:25:25;4.88;;;0.77;;
15218;SDS011;15623;53.986;11.676;2022-09-14T21:28:08;1.55;;;0.88;;
15218;SDS011;15623;53.986;11.676;2022-09-14T21:30:35;3.22;;;0.80;;
15218;SDS011;15623;53.986;11.676;2022-09-14T21:38:21;3.33;;;1.00;;
15218;SDS011;15623;53.986;11.676;2022-09-14T21:40:51;2.75;;;0.80;;
15218;SDS011;15623;53.986;11.676;2022-09-14T21:45:59;0.82;;;0.80;;
15218;SDS011;15623;53.986;11.676;2022-09-14T21:48:26;2.90;;;0.75;;
15218;SDS011;15623;53.986;11.676;2022-09-14T22:08:40;2.30;;;0.70;;
15218;SDS011;15623;53.986;11.676;2022-09-14T23:32:03;2.17;;;1.30;;
